createdAt,value
2016-05-31T00:00:47.486Z,0
2016-05-31T00:01:47.474Z,0
2016-05-31T00:02:47.477Z,0
2016-05-31T00:03:47.322Z,0
2016-05-31T00:04:47.466Z,0
2016-05-31T00:05:47.469Z,0
2016-05-31T00:06:47.471Z,0
2016-05-31T00:07:47.958Z,0
2016-05-31T00:08:47.305Z,0
2016-05-31T00:09:47.480Z,0
2016-05-31T00:10:47.466Z,0
2016-05-31T00:11:47.469Z,0
2016-05-31T00:12:47.299Z,0
2016-05-31T00:13:47.459Z,0
2016-05-31T00:14:47.305Z,0
2016-05-31T00:15:47.449Z,0
2016-05-31T00:16:47.451Z,0
2016-05-31T00:17:49.656Z,0
2016-05-31T00:18:47.488Z,0
2016-05-31T00:19:48.101Z,0
2016-05-31T00:20:48.259Z,0
2016-05-31T00:21:47.464Z,0
2016-05-31T00:22:47.951Z,0
2016-05-31T00:23:47.282Z,0
2016-05-31T00:24:47.489Z,0
2016-05-31T00:25:47.288Z,0
2016-05-31T00:26:49.197Z,0
2016-05-31T00:27:48.996Z,0
2016-05-31T00:28:48.093Z,0
2016-05-31T00:29:47.439Z,0
2016-05-31T00:30:48.380Z,0
2016-05-31T00:31:47.835Z,0
2016-05-31T00:32:48.025Z,0
2016-05-31T00:34:04.575Z,0
2016-05-31T00:34:47.703Z,0
2016-05-31T00:35:47.908Z,0
2016-05-31T00:36:48.333Z,0
2016-05-31T00:37:48.351Z,0
2016-05-31T00:38:47.433Z,0
2016-05-31T00:39:47.419Z,0
2016-05-31T00:40:47.124Z,0
2016-05-31T00:41:47.424Z,0
2016-05-31T00:43:02.990Z,0
2016-05-31T00:43:47.337Z,0
2016-05-31T00:44:47.260Z,0
2016-05-31T00:45:47.826Z,0
2016-05-31T00:46:47.907Z,0
2016-05-31T00:47:47.266Z,0
2016-05-31T00:48:47.538Z,0
2016-05-31T00:49:47.257Z,0
2016-05-31T00:50:47.401Z,0
2016-05-31T00:51:47.405Z,0
2016-05-31T00:52:48.501Z,0
2016-05-31T00:53:47.407Z,0
2016-05-31T00:54:47.098Z,0
2016-05-31T00:55:47.256Z,0
2016-05-31T00:56:47.400Z,0
2016-05-31T00:57:47.247Z,0
2016-05-31T00:58:47.405Z,0
2016-05-31T00:59:47.408Z,0
2016-05-31T01:00:47.395Z,0
2016-05-31T01:01:47.257Z,0
2016-05-31T01:02:47.228Z,0
2016-05-31T01:03:47.403Z,0
2016-05-31T01:04:47.391Z,0
2016-05-31T01:05:47.393Z,0
2016-05-31T01:06:47.083Z,0
2016-05-31T01:07:47.774Z,0
2016-05-31T01:08:47.229Z,0
2016-05-31T01:09:47.372Z,0
2016-05-31T01:10:47.391Z,0
2016-05-31T01:11:47.237Z,0
2016-05-31T01:12:47.380Z,0
2016-05-31T01:13:47.383Z,0
2016-05-31T01:14:47.213Z,0
2016-05-31T01:15:47.216Z,0
2016-05-31T01:16:47.376Z,0
2016-05-31T01:17:47.378Z,0
2016-05-31T01:18:47.224Z,0
2016-05-31T01:19:47.368Z,0
2016-05-31T01:20:47.386Z,0
2016-05-31T01:21:47.061Z,0
2016-05-31T01:22:47.235Z,0
2016-05-31T01:23:47.456Z,0
2016-05-31T01:24:47.429Z,0
2016-05-31T01:25:47.493Z,0
2016-05-31T01:26:47.356Z,0
2016-05-31T01:27:47.045Z,0
2016-05-31T01:28:47.345Z,0
2016-05-31T01:29:47.348Z,0
2016-05-31T01:30:47.195Z,0
2016-05-31T01:31:47.197Z,0
2016-05-31T01:32:47.356Z,0
2016-05-31T01:33:47.374Z,0
2016-05-31T01:34:47.347Z,0
2016-05-31T01:35:47.364Z,0
2016-05-31T01:36:50.448Z,0
2016-05-31T01:37:47.964Z,0
2016-05-31T01:38:48.591Z,0
2016-05-31T01:39:48.422Z,0
2016-05-31T01:40:47.940Z,0
2016-05-31T01:41:48.036Z,0
2016-05-31T01:42:47.351Z,0
2016-05-31T01:43:47.182Z,0
2016-05-31T01:44:47.357Z,0
2016-05-31T01:45:49.797Z,0
2016-05-31T01:46:49.628Z,0
2016-05-31T01:47:48.834Z,0
2016-05-31T01:48:47.680Z,0
2016-05-31T01:49:48.371Z,0
2016-05-31T01:50:47.435Z,0
2016-05-31T01:51:49.298Z,0
2016-05-31T01:52:48.973Z,0
2016-05-31T01:53:48.678Z,0
2016-05-31T01:54:48.603Z,0
2016-05-31T01:55:48.246Z,0
2016-05-31T01:56:47.843Z,0
2016-05-31T01:57:47.283Z,0
2016-05-31T01:58:47.520Z,0
2016-05-31T01:59:47.319Z,0
2016-05-31T02:00:47.322Z,0
2016-05-31T02:01:48.294Z,0
2016-05-31T02:02:48.109Z,0
2016-05-31T02:03:47.549Z,0
2016-05-31T02:04:48.333Z,0
2016-05-31T02:05:47.413Z,0
2016-05-31T02:06:47.151Z,0
2016-05-31T02:07:47.435Z,0
2016-05-31T02:08:47.155Z,0
2016-05-31T02:09:47.299Z,0
2016-05-31T02:10:47.302Z,0
2016-05-31T02:11:47.149Z,0
2016-05-31T02:12:47.308Z,0
2016-05-31T02:13:47.279Z,0
2016-05-31T02:14:47.297Z,0
2016-05-31T02:15:47.300Z,0
2016-05-31T02:16:47.287Z,0
2016-05-31T02:17:47.290Z,0
2016-05-31T02:18:47.293Z,0
2016-05-31T02:19:47.139Z,0
2016-05-31T02:20:47.313Z,0
2016-05-31T02:21:47.144Z,0
2016-05-31T02:22:48.443Z,0
2016-05-31T02:23:47.290Z,0
2016-05-31T02:24:47.309Z,0
2016-05-31T02:25:47.140Z,0
2016-05-31T02:26:47.283Z,0
2016-05-31T02:27:47.285Z,0
2016-05-31T02:28:47.273Z,0
2016-05-31T02:29:47.276Z,0
2016-05-31T02:30:47.278Z,0
2016-05-31T02:31:47.125Z,0
2016-05-31T02:32:47.127Z,0
2016-05-31T02:33:47.301Z,0
2016-05-31T02:34:47.258Z,0
2016-05-31T02:35:47.261Z,0
2016-05-31T02:36:47.153Z,0
2016-05-31T02:37:47.578Z,0
2016-05-31T02:38:46.955Z,5
2016-05-31T02:39:47.255Z,5
2016-05-31T02:40:47.102Z,5
2016-05-31T02:41:47.104Z,5
2016-05-31T02:42:47.263Z,5
2016-05-31T02:43:47.250Z,5
2016-05-31T02:44:47.253Z,5
2016-05-31T02:45:47.099Z,5
2016-05-31T02:46:47.258Z,10
2016-05-31T02:47:47.104Z,10
2016-05-31T02:48:47.091Z,10
2016-05-31T02:49:47.094Z,10
2016-05-31T02:50:47.082Z,10
2016-05-31T02:51:47.241Z,10
2016-05-31T02:52:47.259Z,15
2016-05-31T02:53:47.215Z,15
2016-05-31T02:54:46.936Z,15
2016-05-31T02:55:47.829Z,15
2016-05-31T02:56:48.879Z,15
2016-05-31T02:57:47.241Z,20
2016-05-31T02:58:47.072Z,20
2016-05-31T02:59:48.028Z,20
2016-05-31T03:00:47.577Z,25
2016-05-31T03:01:47.221Z,25
2016-05-31T03:02:47.239Z,30
2016-05-31T03:03:47.070Z,30
2016-05-31T03:05:04.341Z,35
2016-05-31T03:05:48.278Z,35
2016-05-31T03:06:47.578Z,35
2016-05-31T03:07:49.549Z,40
2016-05-31T03:08:48.396Z,40
2016-05-31T03:09:47.711Z,45
2016-05-31T03:10:49.089Z,45
2016-05-31T03:11:49.466Z,45
2016-05-31T03:12:47.468Z,50
2016-05-31T03:13:48.534Z,50
2016-05-31T03:14:47.849Z,50
2016-05-31T03:15:47.758Z,50
2016-05-31T03:16:47.246Z,50
2016-05-31T03:17:47.748Z,55
2016-05-31T03:18:47.047Z,55
2016-05-31T03:19:47.207Z,55
2016-05-31T03:20:49.443Z,60
2016-05-31T03:21:47.196Z,60
2016-05-31T03:22:49.058Z,65
2016-05-31T03:23:48.202Z,65
2016-05-31T03:24:47.204Z,65
2016-05-31T03:25:47.207Z,70
2016-05-31T03:26:47.054Z,75
2016-05-31T03:27:47.181Z,80
2016-05-31T03:28:47.058Z,85
2016-05-31T03:29:47.031Z,90
2016-05-31T03:30:47.033Z,95
2016-05-31T03:31:47.192Z,95
2016-05-31T03:32:47.195Z,100
2016-05-31T03:33:47.025Z,105
2016-05-31T03:34:47.184Z,105
2016-05-31T03:35:47.187Z,105
2016-05-31T03:36:47.440Z,110
2016-05-31T03:37:47.317Z,110
2016-05-31T03:38:47.445Z,110
2016-05-31T03:39:47.011Z,115
2016-05-31T03:40:47.169Z,115
2016-05-31T03:41:47.016Z,115
2016-05-31T03:42:47.174Z,120
2016-05-31T03:43:47.177Z,120
2016-05-31T03:44:47.164Z,120
2016-05-31T03:45:47.182Z,130
2016-05-31T03:46:47.170Z,135
2016-05-31T03:47:47.016Z,145
2016-05-31T03:48:47.159Z,155
2016-05-31T03:49:47.178Z,150
2016-05-31T03:50:47.196Z,150
2016-05-31T03:51:47.010Z,160
2016-05-31T03:52:46.889Z,165
2016-05-31T03:53:47.048Z,180
2016-05-31T03:54:47.019Z,180
2016-05-31T03:55:47.163Z,180
2016-05-31T03:56:47.181Z,180
2016-05-31T03:57:47.168Z,175
2016-05-31T03:58:47.171Z,175
2016-05-31T03:59:47.173Z,180
2016-05-31T04:00:47.160Z,175
2016-05-31T04:01:47.006Z,170
2016-05-31T04:02:47.010Z,175
2016-05-31T04:03:47.153Z,170
2016-05-31T04:04:47.186Z,175
2016-05-31T04:05:47.003Z,180
2016-05-31T04:06:47.161Z,175
2016-05-31T04:07:47.991Z,170
2016-05-31T04:08:47.666Z,165
2016-05-31T04:09:47.170Z,170
2016-05-31T04:10:47.000Z,150
2016-05-31T04:11:47.174Z,145
2016-05-31T04:12:47.006Z,140
2016-05-31T04:13:47.164Z,130
2016-05-31T04:14:49.057Z,135
2016-05-31T04:15:47.279Z,140
2016-05-31T04:16:47.719Z,155
2016-05-31T04:17:47.613Z,165
2016-05-31T04:18:47.865Z,170
2016-05-31T04:19:47.024Z,165
2016-05-31T04:20:47.168Z,175
2016-05-31T04:21:47.154Z,180
2016-05-31T04:22:47.204Z,210
2016-05-31T04:23:48.754Z,250
2016-05-31T04:24:49.319Z,270
2016-05-31T04:25:48.806Z,285
2016-05-31T04:26:47.949Z,290
2016-05-31T04:27:48.171Z,310
2016-05-31T04:28:47.329Z,305
2016-05-31T04:29:47.941Z,320
2016-05-31T04:30:47.569Z,290
2016-05-31T04:31:48.869Z,300
2016-05-31T04:32:47.387Z,345
2016-05-31T04:33:47.639Z,360
2016-05-31T04:34:47.409Z,400
2016-05-31T04:35:47.786Z,430
2016-05-31T04:36:47.772Z,410
2016-05-31T04:37:47.885Z,460
2016-05-31T04:38:46.966Z,385
2016-05-31T04:39:47.609Z,380
2016-05-31T04:40:48.564Z,300
2016-05-31T04:41:48.709Z,445
2016-05-31T04:42:48.211Z,400
2016-05-31T04:43:47.182Z,375
2016-05-31T04:44:47.232Z,375
2016-05-31T04:45:47.188Z,365
2016-05-31T04:46:47.347Z,385
2016-05-31T04:47:47.193Z,360
2016-05-31T04:48:47.211Z,350
2016-05-31T04:49:47.199Z,225
2016-05-31T04:50:47.060Z,205
2016-05-31T04:51:47.047Z,215
2016-05-31T04:52:47.535Z,215
2016-05-31T04:53:47.069Z,235
2016-05-31T04:54:47.227Z,235
2016-05-31T04:55:46.918Z,235
2016-05-31T04:56:47.232Z,340
2016-05-31T04:57:47.079Z,355
2016-05-31T04:58:47.238Z,455
2016-05-31T04:59:47.240Z,480
2016-05-31T05:00:47.104Z,490
2016-05-31T05:01:47.090Z,450
2016-05-31T05:02:47.248Z,455
2016-05-31T05:03:47.112Z,535
2016-05-31T05:04:47.270Z,470
2016-05-31T05:05:47.257Z,530
2016-05-31T05:06:47.275Z,620
2016-05-31T05:07:47.373Z,635
2016-05-31T05:08:47.140Z,540
2016-05-31T05:09:47.283Z,410
2016-05-31T05:10:47.130Z,390
2016-05-31T05:11:47.304Z,400
2016-05-31T05:12:47.292Z,380
2016-05-31T05:13:47.138Z,375
2016-05-31T05:14:47.297Z,345
2016-05-31T05:15:47.159Z,345
2016-05-31T05:16:47.333Z,320
2016-05-31T05:17:47.321Z,295
2016-05-31T05:18:47.323Z,300
2016-05-31T05:19:47.342Z,310
2016-05-31T05:20:47.344Z,310
2016-05-31T05:21:47.332Z,310
2016-05-31T05:22:47.802Z,315
2016-05-31T05:23:47.524Z,320
2016-05-31T05:24:47.371Z,325
2016-05-31T05:25:47.201Z,325
2016-05-31T05:26:47.345Z,335
2016-05-31T05:27:47.363Z,325
2016-05-31T05:28:47.366Z,315
2016-05-31T05:29:47.368Z,315
2016-05-31T05:30:47.387Z,320
2016-05-31T05:31:47.374Z,395
2016-05-31T05:32:47.376Z,385
2016-05-31T05:33:49.989Z,405
2016-05-31T05:34:48.788Z,435
2016-05-31T05:35:47.401Z,520
2016-05-31T05:36:47.622Z,405
2016-05-31T05:37:48.984Z,425
2016-05-31T05:38:47.767Z,410
2016-05-31T05:39:47.926Z,480
2016-05-31T05:40:47.258Z,400
2016-05-31T05:41:47.416Z,450
2016-05-31T05:42:48.217Z,505
2016-05-31T05:43:48.641Z,560
2016-05-31T05:44:48.300Z,495
2016-05-31T05:45:47.286Z,585
2016-05-31T05:46:48.617Z,780
2016-05-31T05:47:47.292Z,950
2016-05-31T05:48:49.747Z,1120
2016-05-31T05:49:49.688Z,1175
2016-05-31T05:50:48.315Z,1495
2016-05-31T05:51:47.475Z,1080
2016-05-31T05:52:48.040Z,630
2016-05-31T05:53:47.807Z,755
2016-05-31T05:54:48.686Z,1075
2016-05-31T05:55:47.344Z,770
2016-05-31T05:56:47.629Z,890
2016-05-31T05:57:47.358Z,755
2016-05-31T05:59:48.777Z,615
2016-05-31T06:00:49.165Z,655
2016-05-31T06:01:48.429Z,790
2016-05-31T06:02:48.359Z,700
2016-05-31T06:03:47.965Z,780
2016-05-31T06:04:47.930Z,640
2016-05-31T06:05:48.052Z,635
2016-05-31T06:06:47.752Z,655
2016-05-31T06:07:47.808Z,665
2016-05-31T06:08:48.299Z,665
2016-05-31T06:09:47.806Z,675
2016-05-31T06:10:47.812Z,695
2016-05-31T06:11:47.833Z,680
2016-05-31T06:12:47.838Z,710
2016-05-31T06:13:47.841Z,815
2016-05-31T06:14:47.878Z,760
2016-05-31T06:15:47.725Z,730
2016-05-31T06:16:47.713Z,715
2016-05-31T06:17:47.873Z,645
2016-05-31T06:18:47.892Z,620
2016-05-31T06:19:47.598Z,605
2016-05-31T06:20:47.929Z,600
2016-05-31T06:21:47.932Z,610
2016-05-31T06:22:48.498Z,650
2016-05-31T06:23:47.829Z,700
2016-05-31T06:24:47.956Z,745
2016-05-31T06:25:47.960Z,765
2016-05-31T06:26:47.821Z,845
2016-05-31T06:27:47.840Z,885
2016-05-31T06:28:48.013Z,940
2016-05-31T06:29:47.985Z,1020
2016-05-31T06:30:48.004Z,1560
2016-05-31T06:31:47.709Z,1700
2016-05-31T06:32:47.868Z,1635
2016-05-31T06:33:47.870Z,1820
2016-05-31T06:34:48.046Z,1525
2016-05-31T06:35:48.064Z,960
2016-05-31T06:36:48.114Z,990
2016-05-31T06:37:48.084Z,860
2016-05-31T06:38:48.573Z,830
2016-05-31T06:39:47.778Z,855
2016-05-31T06:40:48.108Z,865
2016-05-31T06:41:47.798Z,870
2016-05-31T06:42:48.130Z,870
2016-05-31T06:43:48.133Z,890
2016-05-31T06:44:48.135Z,905
2016-05-31T06:45:48.184Z,1140
2016-05-31T06:46:48.015Z,1160
2016-05-31T06:47:48.034Z,1405
2016-05-31T06:48:48.192Z,1705
2016-05-31T06:49:48.055Z,1685
2016-05-31T06:50:48.058Z,1230
2016-05-31T06:51:48.232Z,1015
2016-05-31T06:52:49.438Z,990
2016-05-31T06:53:50.909Z,1010
2016-05-31T06:54:48.287Z,1070
2016-05-31T06:55:48.946Z,1270
2016-05-31T06:56:48.277Z,2185
2016-05-31T06:57:48.435Z,2265
2016-05-31T06:58:48.313Z,1560
2016-05-31T06:59:48.332Z,1105
2016-05-31T07:00:48.335Z,1635
2016-05-31T07:01:51.290Z,1360
2016-05-31T07:02:48.668Z,1160
2016-05-31T07:03:48.373Z,1855
2016-05-31T07:04:48.392Z,1170
2016-05-31T07:05:49.504Z,945
2016-05-31T07:06:49.069Z,1195
2016-05-31T07:08:48.903Z,1005
2016-05-31T07:09:48.703Z,1330
2016-05-31T07:10:49.595Z,1455
2016-05-31T07:11:48.489Z,950
2016-05-31T07:12:48.569Z,1160
2016-05-31T07:13:48.542Z,1035
2016-05-31T07:14:48.528Z,1345
2016-05-31T07:15:48.765Z,1520
2016-05-31T07:16:48.533Z,1720
2016-05-31T07:17:50.239Z,1905
2016-05-31T07:18:48.647Z,1565
2016-05-31T07:19:48.995Z,805
2016-05-31T07:20:48.982Z,1030
2016-05-31T07:21:48.610Z,1100
2016-05-31T07:22:49.237Z,1320
2016-05-31T07:23:48.866Z,1560
2016-05-31T07:24:48.493Z,1970
2016-05-31T07:25:48.338Z,2210
2016-05-31T07:26:48.685Z,2040
2016-05-31T07:27:48.532Z,2010
2016-05-31T07:28:48.707Z,2450
2016-05-31T07:29:48.552Z,1570
2016-05-31T07:30:48.727Z,1140
2016-05-31T07:31:48.730Z,990
2016-05-31T07:32:48.765Z,1465
2016-05-31T07:33:48.610Z,1470
2016-05-31T07:34:48.785Z,1755
2016-05-31T07:35:48.803Z,1505
2016-05-31T07:36:48.962Z,1375
2016-05-31T07:37:49.637Z,2170
2016-05-31T07:38:49.031Z,1835
2016-05-31T07:39:48.845Z,1990
2016-05-31T07:40:48.864Z,2230
2016-05-31T07:41:48.742Z,1625
2016-05-31T07:42:48.759Z,1665
2016-05-31T07:43:48.778Z,1815
2016-05-31T07:44:48.936Z,2250
2016-05-31T07:45:48.940Z,2345
2016-05-31T07:46:48.818Z,2300
2016-05-31T07:47:48.976Z,1015
2016-05-31T07:48:48.978Z,1525
2016-05-31T07:49:49.013Z,1660
2016-05-31T07:50:49.031Z,925
2016-05-31T07:51:49.050Z,1120
2016-05-31T07:52:49.818Z,2565
2016-05-31T07:53:48.930Z,1580
2016-05-31T07:54:49.104Z,1315
2016-05-31T07:55:49.108Z,840
2016-05-31T07:56:49.110Z,765
2016-05-31T07:57:49.128Z,720
2016-05-31T07:58:48.974Z,650
2016-05-31T07:59:48.852Z,635
2016-05-31T08:00:49.183Z,625
2016-05-31T08:01:49.202Z,660
2016-05-31T08:02:48.907Z,765
2016-05-31T08:03:49.253Z,795
2016-05-31T08:04:49.226Z,815
2016-05-31T08:05:49.229Z,830
2016-05-31T08:06:49.246Z,815
2016-05-31T08:07:50.311Z,830
2016-05-31T08:08:49.689Z,770
2016-05-31T08:09:49.144Z,755
2016-05-31T08:10:49.304Z,785
2016-05-31T08:11:51.526Z,790
2016-05-31T08:12:49.872Z,755
2016-05-31T08:13:50.514Z,750
2016-05-31T08:14:50.612Z,785
2016-05-31T08:15:50.317Z,870
2016-05-31T08:16:49.601Z,980
2016-05-31T08:17:49.744Z,1015
2016-05-31T08:18:49.403Z,970
2016-05-31T08:19:49.405Z,900
2016-05-31T08:20:50.002Z,875
2016-05-31T08:21:51.036Z,860
2016-05-31T08:22:51.320Z,980
2016-05-31T08:23:50.307Z,915
2016-05-31T08:24:49.310Z,1200
2016-05-31T08:25:50.157Z,990
2016-05-31T08:26:50.363Z,885
2016-05-31T08:27:52.224Z,880
2016-05-31T08:28:51.149Z,940
2016-05-31T08:29:49.917Z,975
2016-05-31T08:30:50.264Z,1205
2016-05-31T08:31:50.157Z,1170
2016-05-31T08:32:49.957Z,1105
2016-05-31T08:33:50.349Z,990
2016-05-31T08:34:49.618Z,1000
2016-05-31T08:35:49.418Z,920
2016-05-31T08:36:51.201Z,900
2016-05-31T08:37:52.268Z,895
2016-05-31T08:38:49.895Z,925
2016-05-31T08:39:50.241Z,1075
2016-05-31T08:40:49.743Z,1010
2016-05-31T08:41:49.637Z,950
2016-05-31T08:42:49.828Z,960
2016-05-31T08:43:50.111Z,945
2016-05-31T08:44:49.536Z,1005
2016-05-31T08:45:49.711Z,915
2016-05-31T08:46:49.713Z,900
2016-05-31T08:47:49.716Z,885
2016-05-31T08:48:49.578Z,880
2016-05-31T08:49:49.737Z,885
2016-05-31T08:50:49.583Z,955
2016-05-31T08:51:49.773Z,940
2016-05-31T08:52:49.510Z,940
2016-05-31T08:53:51.200Z,965
2016-05-31T08:54:49.641Z,960
2016-05-31T08:55:49.816Z,950
2016-05-31T08:56:49.505Z,960
2016-05-31T08:57:49.696Z,1005
2016-05-31T08:58:49.699Z,1025
2016-05-31T08:59:49.701Z,1055
2016-05-31T09:00:49.860Z,1065
2016-05-31T09:01:49.863Z,1000
2016-05-31T09:02:49.896Z,965
2016-05-31T09:03:49.915Z,910
2016-05-31T09:04:49.918Z,895
2016-05-31T09:05:49.764Z,860
2016-05-31T09:06:49.938Z,835
2016-05-31T09:07:50.582Z,825
2016-05-31T09:08:50.538Z,840
2016-05-31T09:09:49.962Z,885
2016-05-31T09:10:49.840Z,910
2016-05-31T09:11:49.998Z,890
2016-05-31T09:12:49.704Z,850
2016-05-31T09:13:50.020Z,805
2016-05-31T09:14:49.882Z,790
2016-05-31T09:15:50.041Z,785
2016-05-31T09:16:50.044Z,800
2016-05-31T09:17:49.905Z,825
2016-05-31T09:18:50.081Z,865
2016-05-31T09:19:49.770Z,915
2016-05-31T09:20:50.086Z,930
2016-05-31T09:21:50.103Z,930
2016-05-31T09:22:49.857Z,915
2016-05-31T09:23:50.843Z,865
2016-05-31T09:24:50.144Z,860
2016-05-31T09:25:49.864Z,845
2016-05-31T09:26:50.164Z,795
2016-05-31T09:27:50.166Z,755
2016-05-31T09:28:50.202Z,745
2016-05-31T09:29:49.875Z,735
2016-05-31T09:30:50.800Z,655
2016-05-31T09:31:50.209Z,690
2016-05-31T09:32:51.103Z,735
2016-05-31T09:33:50.245Z,720
2016-05-31T09:34:50.249Z,715
2016-05-31T09:35:50.766Z,690
2016-05-31T09:36:50.706Z,620
2016-05-31T09:37:50.788Z,610
2016-05-31T09:38:50.744Z,635
2016-05-31T09:39:50.309Z,645
2016-05-31T09:40:50.655Z,680
2016-05-31T09:41:51.189Z,735
2016-05-31T09:42:51.035Z,800
2016-05-31T09:43:50.178Z,845
2016-05-31T09:44:50.759Z,865
2016-05-31T09:45:52.340Z,885
2016-05-31T09:46:51.812Z,905
2016-05-31T09:47:51.470Z,905
2016-05-31T09:48:50.817Z,905
2016-05-31T09:49:51.117Z,870
2016-05-31T09:50:51.307Z,860
2016-05-31T09:51:59.559Z,850
2016-05-31T09:52:50.906Z,830
2016-05-31T09:53:51.361Z,825
2016-05-31T09:54:50.474Z,810
2016-05-31T09:56:52.230Z,840
2016-05-31T09:57:50.325Z,830
2016-05-31T09:58:50.594Z,845
2016-05-31T09:59:50.580Z,860
2016-05-31T10:00:50.788Z,895
2016-05-31T10:01:51.243Z,915
2016-05-31T10:02:50.527Z,940
2016-05-31T10:03:50.545Z,950
2016-05-31T10:04:50.594Z,965
2016-05-31T10:05:50.550Z,950
2016-05-31T10:06:50.569Z,955
2016-05-31T10:07:50.884Z,975
2016-05-31T10:08:51.121Z,940
2016-05-31T10:09:50.451Z,890
2016-05-31T10:10:50.611Z,845
2016-05-31T10:11:50.613Z,805
2016-05-31T10:12:50.648Z,775
2016-05-31T10:13:50.493Z,760
2016-05-31T10:14:50.668Z,750
2016-05-31T10:15:50.670Z,745
2016-05-31T10:16:50.690Z,750
2016-05-31T10:17:50.692Z,760
2016-05-31T10:18:50.711Z,770
2016-05-31T10:19:50.713Z,775
2016-05-31T10:20:50.732Z,770
2016-05-31T10:21:50.750Z,770
2016-05-31T10:22:51.252Z,760
2016-05-31T10:23:52.068Z,755
2016-05-31T10:24:50.773Z,755
2016-05-31T10:25:50.775Z,745
2016-05-31T10:26:50.778Z,745
2016-05-31T10:27:50.656Z,740
2016-05-31T10:28:50.816Z,740
2016-05-31T10:29:50.724Z,740
2016-05-31T10:30:50.680Z,750
2016-05-31T10:31:50.839Z,765
2016-05-31T10:32:50.732Z,800
2016-05-31T10:33:50.860Z,820
2016-05-31T10:34:50.707Z,835
2016-05-31T10:35:50.896Z,845
2016-05-31T10:36:50.899Z,855
2016-05-31T10:37:52.215Z,870
2016-05-31T10:38:50.874Z,885
2016-05-31T10:39:50.923Z,880
2016-05-31T10:40:50.785Z,885
2016-05-31T10:41:50.944Z,870
2016-05-31T10:42:50.993Z,865
2016-05-31T10:43:50.996Z,855
2016-05-31T10:44:50.968Z,845
2016-05-31T10:45:50.845Z,845
2016-05-31T10:46:50.832Z,840
2016-05-31T10:47:51.007Z,845
2016-05-31T10:48:50.853Z,850
2016-05-31T10:49:52.685Z,855
2016-05-31T10:50:51.687Z,850
2016-05-31T10:51:51.050Z,840
2016-05-31T10:52:51.380Z,825
2016-05-31T10:54:06.136Z,830
2016-05-31T10:54:51.886Z,815
2016-05-31T10:55:51.231Z,805
2016-05-31T10:56:50.953Z,820
2016-05-31T10:57:50.800Z,790
2016-05-31T10:58:50.958Z,745
2016-05-31T10:59:52.524Z,710
2016-05-31T11:00:52.386Z,675
2016-05-31T11:01:51.904Z,660
2016-05-31T11:02:51.610Z,660
2016-05-31T11:03:51.191Z,655
2016-05-31T11:04:51.224Z,660
2016-05-31T11:05:53.055Z,665
2016-05-31T11:06:52.715Z,660
2016-05-31T11:07:52.513Z,660
2016-05-31T11:08:52.564Z,660
2016-05-31T11:09:51.426Z,665
2016-05-31T11:10:51.740Z,675
2016-05-31T11:11:51.759Z,690
2016-05-31T11:12:51.262Z,705
2016-05-31T11:13:51.279Z,705
2016-05-31T11:14:51.908Z,695
2016-05-31T11:15:53.598Z,690
2016-05-31T11:16:51.585Z,680
2016-05-31T11:17:52.151Z,675
2016-05-31T11:18:51.559Z,685
2016-05-31T11:19:52.015Z,675
2016-05-31T11:20:51.189Z,650
2016-05-31T11:21:51.473Z,620
2016-05-31T11:22:51.367Z,595
2016-05-31T11:23:51.511Z,600
2016-05-31T11:24:51.388Z,610
2016-05-31T11:25:51.391Z,620
2016-05-31T11:26:51.409Z,650
2016-05-31T11:27:51.411Z,670
2016-05-31T11:28:51.414Z,700
2016-05-31T11:29:51.277Z,740
2016-05-31T11:30:51.450Z,765
2016-05-31T11:31:51.453Z,765
2016-05-31T11:32:51.315Z,765
2016-05-31T11:33:51.303Z,755
2016-05-31T11:34:51.321Z,740
2016-05-31T11:35:51.480Z,750
2016-05-31T11:36:51.341Z,760
2016-05-31T11:37:51.204Z,760
2016-05-31T11:38:52.128Z,770
2016-05-31T11:39:51.521Z,765
2016-05-31T11:40:51.385Z,770
2016-05-31T11:41:51.387Z,770
2016-05-31T11:42:51.420Z,775
2016-05-31T11:43:51.565Z,790
2016-05-31T11:44:51.582Z,800
2016-05-31T11:45:51.585Z,790
2016-05-31T11:46:51.448Z,790
2016-05-31T11:47:51.606Z,785
2016-05-31T11:48:51.623Z,780
2016-05-31T11:49:51.486Z,790
2016-05-31T11:50:51.489Z,805
2016-05-31T11:51:51.632Z,810
2016-05-31T11:52:51.510Z,810
2016-05-31T11:53:52.309Z,800
2016-05-31T11:54:51.672Z,780
2016-05-31T11:55:51.674Z,765
2016-05-31T11:56:51.739Z,735
2016-05-31T11:57:51.711Z,715
2016-05-31T11:58:51.714Z,720
2016-05-31T11:59:51.732Z,725
2016-05-31T12:00:51.735Z,715
2016-05-31T12:01:51.752Z,705
2016-05-31T12:02:51.755Z,685
2016-05-31T12:03:51.790Z,650
2016-05-31T12:04:51.777Z,600
2016-05-31T12:05:51.780Z,575
2016-05-31T12:06:51.797Z,580
2016-05-31T12:07:53.049Z,620
2016-05-31T12:08:52.991Z,690
2016-05-31T12:09:51.822Z,710
2016-05-31T12:10:53.137Z,705
2016-05-31T12:11:51.702Z,715
2016-05-31T12:12:51.767Z,735
2016-05-31T12:13:51.863Z,750
2016-05-31T12:14:52.335Z,755
2016-05-31T12:15:51.571Z,770
2016-05-31T12:16:51.746Z,785
2016-05-31T12:17:53.468Z,780
2016-05-31T12:18:53.017Z,780
2016-05-31T12:19:51.801Z,790
2016-05-31T12:20:51.929Z,790
2016-05-31T12:21:51.651Z,780
2016-05-31T12:22:53.279Z,770
2016-05-31T12:23:52.515Z,755
2016-05-31T12:24:53.174Z,730
2016-05-31T12:25:53.192Z,705
2016-05-31T12:26:52.695Z,635
2016-05-31T12:27:52.011Z,580
2016-05-31T12:28:52.763Z,565
2016-05-31T12:29:52.484Z,580
2016-05-31T12:30:52.362Z,620
2016-05-31T12:31:52.052Z,655
2016-05-31T12:32:52.055Z,675
2016-05-31T12:33:55.323Z,705
2016-05-31T12:34:53.857Z,740
2016-05-31T12:35:52.110Z,740
2016-05-31T12:36:52.722Z,725
2016-05-31T12:37:54.647Z,710
2016-05-31T12:38:53.399Z,690
2016-05-31T12:39:52.496Z,690
2016-05-31T12:40:52.138Z,680
2016-05-31T12:41:52.001Z,675
2016-05-31T12:42:52.176Z,685
2016-05-31T12:43:52.179Z,725
2016-05-31T12:44:52.040Z,745
2016-05-31T12:45:52.043Z,745
2016-05-31T12:46:52.061Z,730
2016-05-31T12:47:52.064Z,690
2016-05-31T12:48:52.224Z,650
2016-05-31T12:49:52.070Z,630
2016-05-31T12:50:52.291Z,620
2016-05-31T12:51:52.247Z,625
2016-05-31T12:52:53.531Z,620
2016-05-31T12:53:52.423Z,615
2016-05-31T12:54:52.286Z,610
2016-05-31T12:55:52.289Z,605
2016-05-31T12:56:52.307Z,605
2016-05-31T12:57:52.325Z,620
2016-05-31T12:58:52.328Z,640
2016-05-31T12:59:52.331Z,645
2016-05-31T13:00:52.177Z,655
2016-05-31T13:01:52.352Z,665
2016-05-31T13:02:52.198Z,670
2016-05-31T13:03:52.420Z,685
2016-05-31T13:04:52.375Z,705
2016-05-31T13:05:52.425Z,710
2016-05-31T13:06:52.396Z,680
2016-05-31T13:07:55.166Z,675
2016-05-31T13:08:52.449Z,670
2016-05-31T13:09:52.436Z,675
2016-05-31T13:10:52.438Z,670
2016-05-31T13:11:52.285Z,675
2016-05-31T13:12:52.459Z,695
2016-05-31T13:13:52.462Z,690
2016-05-31T13:14:52.480Z,685
2016-05-31T13:15:52.483Z,695
2016-05-31T13:16:52.485Z,720
2016-05-31T13:17:52.504Z,725
2016-05-31T13:18:52.523Z,735
2016-05-31T13:19:52.540Z,750
2016-05-31T13:20:52.543Z,740
2016-05-31T13:21:52.546Z,715
2016-05-31T13:22:53.627Z,680
2016-05-31T13:23:53.379Z,645
2016-05-31T13:24:52.554Z,630
2016-05-31T13:25:52.431Z,615
2016-05-31T13:26:52.576Z,600
2016-05-31T13:27:54.390Z,590
2016-05-31T13:28:55.299Z,585
2016-05-31T13:29:52.459Z,570
2016-05-31T13:30:52.648Z,550
2016-05-31T13:31:53.479Z,540
2016-05-31T13:32:52.764Z,520
2016-05-31T13:33:52.703Z,520
2016-05-31T13:34:52.409Z,515
2016-05-31T13:35:52.521Z,515
2016-05-31T13:36:52.696Z,520
2016-05-31T13:37:55.996Z,540
2016-05-31T13:38:55.076Z,570
2016-05-31T13:39:54.063Z,585
2016-05-31T13:40:53.504Z,600
2016-05-31T13:41:53.224Z,620
2016-05-31T13:42:52.728Z,630
2016-05-31T13:43:53.933Z,650
2016-05-31T13:44:53.905Z,655
2016-05-31T13:45:53.236Z,660
2016-05-31T13:46:52.488Z,665
2016-05-31T13:47:53.412Z,670
2016-05-31T13:48:53.150Z,670
2016-05-31T13:49:52.825Z,680
2016-05-31T13:50:52.656Z,675
2016-05-31T13:51:52.815Z,680
2016-05-31T13:52:55.270Z,670
2016-05-31T13:53:54.570Z,665
2016-05-31T13:54:52.838Z,660
2016-05-31T13:55:53.825Z,645
2016-05-31T13:56:53.672Z,630
2016-05-31T13:57:53.096Z,625
2016-05-31T13:58:53.114Z,615
2016-05-31T13:59:52.883Z,605